sensor_id;sensor_type;location;lat;lon;timestamp;P1;durP1;ratioP1;P2;durP2;ratioP2
57047;SDS011;42934;54.294;18.598;2023-12-29T00:00:39;7.88;;;3.47;;
57047;SDS011;42934;54.294;18.598;2023-12-29T00:03:29;6.30;;;3.67;;
57047;SDS011;42934;54.294;18.598;2023-12-29T00:06:01;7.90;;;3.70;;
57047;SDS011;42934;54.294;18.598;2023-12-29T00:08:31;7.53;;;3.70;;
57047;SDS011;42934;54.294;18.598;2023-12-29T00:11:00;5.50;;;3.40;;
57047;SDS011;42934;54.294;18.598;2023-12-29T00:13:29;8.05;;;3.53;;
57047;SDS011;42934;54.294;18.598;2023-12-29T00:15:58;6.82;;;3.38;;
57047;SDS011;42934;54.294;18.598;2023-12-29T00:18:27;7.37;;;3.63;;
57047;SDS011;42934;54.294;18.598;2023-12-29T00:20:58;7.15;;;3.70;;
57047;SDS011;42934;54.294;18.598;2023-12-29T00:23:33;11.75;;;4.18;;
57047;SDS011;42934;54.294;18.598;2023-12-29T00:26:02;5.90;;;3.00;;
57047;SDS011;42934;54.294;18.598;2023-12-29T00:28:32;6.82;;;3.40;;
57047;SDS011;42934;54.294;18.598;2023-12-29T00:31:03;6.65;;;3.80;;
57047;SDS011;42934;54.294;18.598;2023-12-29T00:33:34;7.95;;;3.47;;
57047;SDS011;42934;54.294;18.598;2023-12-29T00:36:03;5.30;;;3.53;;
57047;SDS011;42934;54.294;18.598;2023-12-29T00:38:33;6.60;;;3.67;;
57047;SDS011;42934;54.294;18.598;2023-12-29T00:41:03;6.15;;;3.35;;
57047;SDS011;42934;54.294;18.598;2023-12-29T00:43:34;7.93;;;3.40;;
57047;SDS011;42934;54.294;18.598;2023-12-29T00:46:03;7.97;;;3.90;;
57047;SDS011;42934;54.294;18.598;2023-12-29T00:48:34;6.20;;;3.25;;
57047;SDS011;42934;54.294;18.598;2023-12-29T00:51:04;9.57;;;3.85;;
57047;SDS011;42934;54.294;18.598;2023-12-29T00:53:34;7.97;;;3.58;;
57047;SDS011;42934;54.294;18.598;2023-12-29T00:56:09;6.30;;;3.40;;
57047;SDS011;42934;54.294;18.598;2023-12-29T00:58:38;7.72;;;3.58;;
57047;SDS011;42934;54.294;18.598;2023-12-29T01:01:07;6.80;;;3.40;;
57047;SDS011;42934;54.294;18.598;2023-12-29T01:03:40;6.97;;;3.55;;
57047;SDS011;42934;54.294;18.598;2023-12-29T01:06:09;7.65;;;3.50;;
57047;SDS011;42934;54.294;18.598;2023-12-29T01:08:39;6.60;;;3.42;;
57047;SDS011;42934;54.294;18.598;2023-12-29T01:11:08;4.95;;;3.28;;
57047;SDS011;42934;54.294;18.598;2023-12-29T01:13:37;6.67;;;3.20;;
57047;SDS011;42934;54.294;18.598;2023-12-29T01:16:06;5.93;;;3.60;;
57047;SDS011;42934;54.294;18.598;2023-12-29T01:18:35;6.70;;;3.38;;
57047;SDS011;42934;54.294;18.598;2023-12-29T01:21:06;6.40;;;3.38;;
57047;SDS011;42934;54.294;18.598;2023-12-29T01:23:36;6.35;;;3.47;;
57047;SDS011;42934;54.294;18.598;2023-12-29T01:26:05;9.68;;;3.83;;
57047;SDS011;42934;54.294;18.598;2023-12-29T01:28:34;7.20;;;3.97;;
57047;SDS011;42934;54.294;18.598;2023-12-29T01:31:03;6.30;;;3.30;;
57047;SDS011;42934;54.294;18.598;2023-12-29T01:33:33;5.43;;;3.45;;
57047;SDS011;42934;54.294;18.598;2023-12-29T01:36:02;5.35;;;3.53;;
57047;SDS011;42934;54.294;18.598;2023-12-29T01:38:44;8.43;;;3.58;;
57047;SDS011;42934;54.294;18.598;2023-12-29T01:41:14;8.57;;;3.78;;
57047;SDS011;42934;54.294;18.598;2023-12-29T01:46:55;7.28;;;3.97;;
57047;SDS011;42934;54.294;18.598;2023-12-29T01:49:27;9.68;;;3.63;;
57047;SDS011;42934;54.294;18.598;2023-12-29T01:51:57;5.68;;;3.33;;
57047;SDS011;42934;54.294;18.598;2023-12-29T01:54:30;6.22;;;3.58;;
57047;SDS011;42934;54.294;18.598;2023-12-29T01:57:02;8.20;;;4.03;;
57047;SDS011;42934;54.294;18.598;2023-12-29T01:59:32;5.93;;;3.30;;
57047;SDS011;42934;54.294;18.598;2023-12-29T02:02:02;7.43;;;3.60;;
57047;SDS011;42934;54.294;18.598;2023-12-29T02:04:32;5.40;;;3.65;;
57047;SDS011;42934;54.294;18.598;2023-12-29T02:07:04;7.20;;;3.63;;
57047;SDS011;42934;54.294;18.598;2023-12-29T02:09:35;5.50;;;3.17;;
57047;SDS011;42934;54.294;18.598;2023-12-29T02:12:05;8.73;;;3.80;;
57047;SDS011;42934;54.294;18.598;2023-12-29T02:14:35;6.60;;;3.38;;
57047;SDS011;42934;54.294;18.598;2023-12-29T02:17:05;5.30;;;3.22;;
57047;SDS011;42934;54.294;18.598;2023-12-29T02:19:39;6.25;;;3.33;;
57047;SDS011;42934;54.294;18.598;2023-12-29T02:22:11;7.18;;;3.55;;
57047;SDS011;42934;54.294;18.598;2023-12-29T02:24:45;6.13;;;3.20;;
57047;SDS011;42934;54.294;18.598;2023-12-29T02:27:18;6.13;;;3.28;;
57047;SDS011;42934;54.294;18.598;2023-12-29T02:29:56;6.78;;;3.33;;
57047;SDS011;42934;54.294;18.598;2023-12-29T02:32:36;7.53;;;3.65;;
57047;SDS011;42934;54.294;18.598;2023-12-29T02:35:08;7.85;;;3.45;;
57047;SDS011;42934;54.294;18.598;2023-12-29T02:37:40;6.20;;;3.30;;
57047;SDS011;42934;54.294;18.598;2023-12-29T02:40:11;6.35;;;3.38;;
57047;SDS011;42934;54.294;18.598;2023-12-29T02:42:45;7.45;;;3.40;;
57047;SDS011;42934;54.294;18.598;2023-12-29T02:45:15;7.13;;;3.58;;
57047;SDS011;42934;54.294;18.598;2023-12-29T02:47:45;4.63;;;2.97;;
57047;SDS011;42934;54.294;18.598;2023-12-29T02:50:14;7.47;;;3.08;;
57047;SDS011;42934;54.294;18.598;2023-12-29T02:52:45;5.97;;;3.10;;
57047;SDS011;42934;54.294;18.598;2023-12-29T02:55:15;6.93;;;3.20;;
57047;SDS011;42934;54.294;18.598;2023-12-29T02:57:45;4.97;;;3.10;;
57047;SDS011;42934;54.294;18.598;2023-12-29T03:00:14;6.57;;;3.67;;
57047;SDS011;42934;54.294;18.598;2023-12-29T03:02:43;4.97;;;3.38;;
57047;SDS011;42934;54.294;18.598;2023-12-29T03:05:13;5.45;;;3.28;;
57047;SDS011;42934;54.294;18.598;2023-12-29T03:07:42;4.60;;;3.05;;
57047;SDS011;42934;54.294;18.598;2023-12-29T03:10:11;5.70;;;3.35;;
57047;SDS011;42934;54.294;18.598;2023-12-29T03:12:42;6.72;;;2.90;;
57047;SDS011;42934;54.294;18.598;2023-12-29T03:15:12;7.20;;;3.05;;
57047;SDS011;42934;54.294;18.598;2023-12-29T03:17:41;6.32;;;3.20;;
57047;SDS011;42934;54.294;18.598;2023-12-29T03:20:10;6.47;;;2.73;;
57047;SDS011;42934;54.294;18.598;2023-12-29T03:22:40;5.80;;;3.38;;
57047;SDS011;42934;54.294;18.598;2023-12-29T03:25:09;6.25;;;3.28;;
57047;SDS011;42934;54.294;18.598;2023-12-29T03:27:38;4.65;;;3.08;;
57047;SDS011;42934;54.294;18.598;2023-12-29T03:30:09;6.03;;;3.20;;
57047;SDS011;42934;54.294;18.598;2023-12-29T03:32:39;6.03;;;3.30;;
57047;SDS011;42934;54.294;18.598;2023-12-29T03:35:08;6.63;;;3.15;;
57047;SDS011;42934;54.294;18.598;2023-12-29T03:37:37;6.38;;;3.20;;
57047;SDS011;42934;54.294;18.598;2023-12-29T03:40:07;9.13;;;3.38;;
57047;SDS011;42934;54.294;18.598;2023-12-29T03:45:09;6.82;;;2.88;;
57047;SDS011;42934;54.294;18.598;2023-12-29T03:47:38;4.95;;;2.88;;
57047;SDS011;42934;54.294;18.598;2023-12-29T03:50:07;6.72;;;3.03;;
57047;SDS011;42934;54.294;18.598;2023-12-29T03:52:37;6.17;;;2.90;;
57047;SDS011;42934;54.294;18.598;2023-12-29T03:55:06;5.30;;;3.30;;
57047;SDS011;42934;54.294;18.598;2023-12-29T03:57:39;6.35;;;2.90;;
57047;SDS011;42934;54.294;18.598;2023-12-29T04:00:12;6.18;;;3.15;;
57047;SDS011;42934;54.294;18.598;2023-12-29T04:02:42;4.53;;;2.80;;
57047;SDS011;42934;54.294;18.598;2023-12-29T04:05:12;5.13;;;3.10;;
57047;SDS011;42934;54.294;18.598;2023-12-29T04:07:41;6.43;;;3.13;;
57047;SDS011;42934;54.294;18.598;2023-12-29T04:10:10;6.93;;;2.80;;
57047;SDS011;42934;54.294;18.598;2023-12-29T04:12:39;5.38;;;2.78;;
57047;SDS011;42934;54.294;18.598;2023-12-29T04:15:08;5.78;;;3.00;;
57047;SDS011;42934;54.294;18.598;2023-12-29T04:17:39;4.50;;;2.85;;
57047;SDS011;42934;54.294;18.598;2023-12-29T04:20:09;6.75;;;2.72;;
57047;SDS011;42934;54.294;18.598;2023-12-29T04:22:38;7.25;;;3.13;;
57047;SDS011;42934;54.294;18.598;2023-12-29T04:25:08;6.18;;;2.88;;
57047;SDS011;42934;54.294;18.598;2023-12-29T04:27:38;4.50;;;2.57;;
57047;SDS011;42934;54.294;18.598;2023-12-29T04:30:08;4.90;;;2.60;;
57047;SDS011;42934;54.294;18.598;2023-12-29T04:32:37;6.93;;;2.70;;
57047;SDS011;42934;54.294;18.598;2023-12-29T04:35:09;3.65;;;2.70;;
57047;SDS011;42934;54.294;18.598;2023-12-29T04:37:42;9.00;;;3.35;;
57047;SDS011;42934;54.294;18.598;2023-12-29T04:40:12;6.22;;;3.03;;
57047;SDS011;42934;54.294;18.598;2023-12-29T04:42:41;5.90;;;3.05;;
57047;SDS011;42934;54.294;18.598;2023-12-29T04:45:11;5.68;;;2.92;;
57047;SDS011;42934;54.294;18.598;2023-12-29T04:47:42;7.55;;;3.00;;
57047;SDS011;42934;54.294;18.598;2023-12-29T04:50:11;7.20;;;3.30;;
57047;SDS011;42934;54.294;18.598;2023-12-29T04:52:40;10.48;;;3.65;;
57047;SDS011;42934;54.294;18.598;2023-12-29T04:55:09;10.45;;;3.88;;
57047;SDS011;42934;54.294;18.598;2023-12-29T04:57:40;12.63;;;3.88;;
57047;SDS011;42934;54.294;18.598;2023-12-29T05:00:09;11.43;;;3.88;;
57047;SDS011;42934;54.294;18.598;2023-12-29T05:02:39;10.65;;;3.92;;
57047;SDS011;42934;54.294;18.598;2023-12-29T05:05:10;14.10;;;4.07;;
57047;SDS011;42934;54.294;18.598;2023-12-29T05:07:39;11.05;;;3.67;;
57047;SDS011;42934;54.294;18.598;2023-12-29T05:10:08;7.57;;;3.50;;
57047;SDS011;42934;54.294;18.598;2023-12-29T05:12:38;5.85;;;3.00;;
57047;SDS011;42934;54.294;18.598;2023-12-29T05:15:07;6.57;;;3.03;;
57047;SDS011;42934;54.294;18.598;2023-12-29T05:17:36;6.82;;;2.80;;
57047;SDS011;42934;54.294;18.598;2023-12-29T05:20:08;4.55;;;2.70;;
57047;SDS011;42934;54.294;18.598;2023-12-29T05:22:38;4.40;;;2.72;;
57047;SDS011;42934;54.294;18.598;2023-12-29T05:25:07;4.25;;;2.60;;
57047;SDS011;42934;54.294;18.598;2023-12-29T05:27:37;5.20;;;2.80;;
57047;SDS011;42934;54.294;18.598;2023-12-29T05:30:06;5.72;;;2.70;;
57047;SDS011;42934;54.294;18.598;2023-12-29T05:32:35;4.78;;;2.38;;
57047;SDS011;42934;54.294;18.598;2023-12-29T05:35:05;4.45;;;2.67;;
57047;SDS011;42934;54.294;18.598;2023-12-29T05:37:36;4.13;;;2.25;;
57047;SDS011;42934;54.294;18.598;2023-12-29T05:40:05;4.72;;;2.58;;
57047;SDS011;42934;54.294;18.598;2023-12-29T05:42:35;4.88;;;2.35;;
57047;SDS011;42934;54.294;18.598;2023-12-29T05:45:04;3.85;;;2.28;;
57047;SDS011;42934;54.294;18.598;2023-12-29T05:47:34;4.88;;;2.40;;
57047;SDS011;42934;54.294;18.598;2023-12-29T05:50:03;6.72;;;2.60;;
57047;SDS011;42934;54.294;18.598;2023-12-29T05:52:34;4.85;;;2.47;;
57047;SDS011;42934;54.294;18.598;2023-12-29T05:55:04;3.92;;;2.40;;
57047;SDS011;42934;54.294;18.598;2023-12-29T05:57:33;5.47;;;2.60;;
57047;SDS011;42934;54.294;18.598;2023-12-29T06:00:02;4.53;;;2.30;;
57047;SDS011;42934;54.294;18.598;2023-12-29T06:02:37;3.60;;;2.28;;
57047;SDS011;42934;54.294;18.598;2023-12-29T06:05:07;3.72;;;2.42;;
57047;SDS011;42934;54.294;18.598;2023-12-29T06:07:39;6.30;;;2.50;;
57047;SDS011;42934;54.294;18.598;2023-12-29T06:10:08;3.75;;;2.25;;
57047;SDS011;42934;54.294;18.598;2023-12-29T06:12:39;5.07;;;2.40;;
57047;SDS011;42934;54.294;18.598;2023-12-29T06:15:08;4.75;;;2.22;;
57047;SDS011;42934;54.294;18.598;2023-12-29T06:17:39;4.78;;;2.40;;
57047;SDS011;42934;54.294;18.598;2023-12-29T06:20:09;6.07;;;2.70;;
57047;SDS011;42934;54.294;18.598;2023-12-29T06:22:40;5.13;;;2.28;;
57047;SDS011;42934;54.294;18.598;2023-12-29T06:25:10;4.28;;;2.45;;
57047;SDS011;42934;54.294;18.598;2023-12-29T06:27:39;3.72;;;2.45;;
57047;SDS011;42934;54.294;18.598;2023-12-29T06:30:09;5.57;;;2.67;;
57047;SDS011;42934;54.294;18.598;2023-12-29T06:32:38;4.60;;;2.72;;
57047;SDS011;42934;54.294;18.598;2023-12-29T06:35:08;8.82;;;5.53;;
57047;SDS011;42934;54.294;18.598;2023-12-29T06:37:37;7.25;;;2.70;;
57047;SDS011;42934;54.294;18.598;2023-12-29T06:40:09;7.38;;;2.60;;
57047;SDS011;42934;54.294;18.598;2023-12-29T06:42:39;6.00;;;2.72;;
57047;SDS011;42934;54.294;18.598;2023-12-29T06:45:08;3.53;;;2.38;;
57047;SDS011;42934;54.294;18.598;2023-12-29T06:47:37;6.20;;;2.70;;
57047;SDS011;42934;54.294;18.598;2023-12-29T06:50:07;4.65;;;2.78;;
57047;SDS011;42934;54.294;18.598;2023-12-29T06:52:39;7.15;;;3.40;;
57047;SDS011;42934;54.294;18.598;2023-12-29T06:55:10;5.40;;;3.00;;
57047;SDS011;42934;54.294;18.598;2023-12-29T06:57:39;5.28;;;2.55;;
57047;SDS011;42934;54.294;18.598;2023-12-29T07:00:09;4.15;;;2.75;;
57047;SDS011;42934;54.294;18.598;2023-12-29T07:02:38;3.70;;;2.10;;
57047;SDS011;42934;54.294;18.598;2023-12-29T07:05:08;2.53;;;2.13;;
57047;SDS011;42934;54.294;18.598;2023-12-29T07:07:37;5.53;;;2.30;;
57047;SDS011;42934;54.294;18.598;2023-12-29T07:10:06;5.17;;;2.30;;
57047;SDS011;42934;54.294;18.598;2023-12-29T07:12:37;3.40;;;2.50;;
57047;SDS011;42934;54.294;18.598;2023-12-29T07:15:07;3.78;;;2.20;;
57047;SDS011;42934;54.294;18.598;2023-12-29T07:17:36;2.80;;;2.17;;
57047;SDS011;42934;54.294;18.598;2023-12-29T07:20:06;3.03;;;2.10;;
57047;SDS011;42934;54.294;18.598;2023-12-29T07:22:36;6.28;;;3.35;;
57047;SDS011;42934;54.294;18.598;2023-12-29T07:25:05;3.83;;;2.40;;
57047;SDS011;42934;54.294;18.598;2023-12-29T07:27:35;3.33;;;2.08;;
57047;SDS011;42934;54.294;18.598;2023-12-29T07:30:06;4.00;;;2.38;;
57047;SDS011;42934;54.294;18.598;2023-12-29T07:32:36;5.85;;;2.10;;
57047;SDS011;42934;54.294;18.598;2023-12-29T07:35:05;4.63;;;2.38;;
57047;SDS011;42934;54.294;18.598;2023-12-29T07:37:35;5.28;;;3.22;;
57047;SDS011;42934;54.294;18.598;2023-12-29T07:40:04;4.63;;;2.38;;
57047;SDS011;42934;54.294;18.598;2023-12-29T07:42:38;4.63;;;2.33;;
57047;SDS011;42934;54.294;18.598;2023-12-29T07:45:09;4.38;;;2.40;;
57047;SDS011;42934;54.294;18.598;2023-12-29T07:47:38;4.55;;;2.50;;
57047;SDS011;42934;54.294;18.598;2023-12-29T07:50:07;6.95;;;2.42;;
57047;SDS011;42934;54.294;18.598;2023-12-29T07:52:36;4.85;;;2.20;;
57047;SDS011;42934;54.294;18.598;2023-12-29T07:55:06;5.20;;;2.42;;
57047;SDS011;42934;54.294;18.598;2023-12-29T07:57:35;7.03;;;2.10;;
57047;SDS011;42934;54.294;18.598;2023-12-29T08:00:06;4.63;;;2.45;;
57047;SDS011;42934;54.294;18.598;2023-12-29T08:02:38;4.28;;;2.40;;
57047;SDS011;42934;54.294;18.598;2023-12-29T08:05:08;4.10;;;2.30;;
57047;SDS011;42934;54.294;18.598;2023-12-29T08:07:37;5.32;;;2.00;;
57047;SDS011;42934;54.294;18.598;2023-12-29T08:10:07;4.78;;;2.40;;
57047;SDS011;42934;54.294;18.598;2023-12-29T08:15:08;6.03;;;2.70;;
57047;SDS011;42934;54.294;18.598;2023-12-29T08:17:38;4.75;;;2.60;;
57047;SDS011;42934;54.294;18.598;2023-12-29T08:20:07;5.93;;;2.43;;
57047;SDS011;42934;54.294;18.598;2023-12-29T08:22:37;7.85;;;2.40;;
57047;SDS011;42934;54.294;18.598;2023-12-29T08:25:07;5.15;;;2.60;;
57047;SDS011;42934;54.294;18.598;2023-12-29T08:27:36;4.97;;;2.33;;
57047;SDS011;42934;54.294;18.598;2023-12-29T08:30:07;4.68;;;2.30;;
57047;SDS011;42934;54.294;18.598;2023-12-29T08:32:37;3.33;;;2.00;;
57047;SDS011;42934;54.294;18.598;2023-12-29T08:35:06;3.30;;;2.50;;
57047;SDS011;42934;54.294;18.598;2023-12-29T08:37:35;3.47;;;2.42;;
57047;SDS011;42934;54.294;18.598;2023-12-29T08:40:05;3.95;;;2.03;;
57047;SDS011;42934;54.294;18.598;2023-12-29T08:42:35;5.25;;;2.40;;
57047;SDS011;42934;54.294;18.598;2023-12-29T08:45:05;5.30;;;2.38;;
57047;SDS011;42934;54.294;18.598;2023-12-29T08:47:35;6.40;;;2.80;;
57047;SDS011;42934;54.294;18.598;2023-12-29T08:50:05;6.32;;;2.45;;
57047;SDS011;42934;54.294;18.598;2023-12-29T08:52:34;4.93;;;2.40;;
57047;SDS011;42934;54.294;18.598;2023-12-29T08:55:04;7.60;;;2.95;;
57047;SDS011;42934;54.294;18.598;2023-12-29T08:57:33;4.85;;;2.30;;
57047;SDS011;42934;54.294;18.598;2023-12-29T09:00:03;4.32;;;2.30;;
57047;SDS011;42934;54.294;18.598;2023-12-29T09:02:34;5.35;;;2.13;;
57047;SDS011;42934;54.294;18.598;2023-12-29T09:05:03;4.72;;;2.30;;
57047;SDS011;42934;54.294;18.598;2023-12-29T09:10:03;4.85;;;2.50;;
57047;SDS011;42934;54.294;18.598;2023-12-29T09:12:35;3.67;;;2.08;;
57047;SDS011;42934;54.294;18.598;2023-12-29T09:15:05;4.53;;;2.30;;
57047;SDS011;42934;54.294;18.598;2023-12-29T09:17:36;5.70;;;2.30;;
57047;SDS011;42934;54.294;18.598;2023-12-29T09:20:06;3.83;;;2.10;;
57047;SDS011;42934;54.294;18.598;2023-12-29T09:22:37;3.75;;;2.25;;
57047;SDS011;42934;54.294;18.598;2023-12-29T09:25:07;7.63;;;2.40;;
57047;SDS011;42934;54.294;18.598;2023-12-29T09:27:36;4.22;;;2.35;;
57047;SDS011;42934;54.294;18.598;2023-12-29T09:30:06;3.58;;;2.15;;
57047;SDS011;42934;54.294;18.598;2023-12-29T09:32:37;5.65;;;2.92;;
57047;SDS011;42934;54.294;18.598;2023-12-29T09:35:06;4.10;;;2.33;;
57047;SDS011;42934;54.294;18.598;2023-12-29T09:37:36;4.80;;;2.38;;
57047;SDS011;42934;54.294;18.598;2023-12-29T09:40:06;3.70;;;2.45;;
57047;SDS011;42934;54.294;18.598;2023-12-29T09:42:37;5.75;;;2.35;;
57047;SDS011;42934;54.294;18.598;2023-12-29T09:45:09;6.55;;;2.58;;
57047;SDS011;42934;54.294;18.598;2023-12-29T09:47:41;4.78;;;2.05;;
57047;SDS011;42934;54.294;18.598;2023-12-29T09:50:12;4.75;;;2.67;;
57047;SDS011;42934;54.294;18.598;2023-12-29T09:52:42;3.72;;;2.10;;
57047;SDS011;42934;54.294;18.598;2023-12-29T09:55:12;4.55;;;2.35;;
57047;SDS011;42934;54.294;18.598;2023-12-29T09:57:41;4.70;;;2.53;;
57047;SDS011;42934;54.294;18.598;2023-12-29T10:00:12;4.85;;;2.50;;
57047;SDS011;42934;54.294;18.598;2023-12-29T10:02:45;6.18;;;3.22;;
57047;SDS011;42934;54.294;18.598;2023-12-29T10:05:19;3.25;;;2.10;;
57047;SDS011;42934;54.294;18.598;2023-12-29T10:07:48;5.22;;;2.20;;
57047;SDS011;42934;54.294;18.598;2023-12-29T10:10:18;6.28;;;2.42;;
57047;SDS011;42934;54.294;18.598;2023-12-29T10:12:51;6.95;;;2.88;;
57047;SDS011;42934;54.294;18.598;2023-12-29T10:15:24;7.57;;;2.50;;
57047;SDS011;42934;54.294;18.598;2023-12-29T10:18:05;5.20;;;2.70;;
57047;SDS011;42934;54.294;18.598;2023-12-29T10:20:44;6.30;;;2.25;;
57047;SDS011;42934;54.294;18.598;2023-12-29T10:23:18;4.53;;;2.60;;
57047;SDS011;42934;54.294;18.598;2023-12-29T10:25:51;6.40;;;3.13;;
57047;SDS011;42934;54.294;18.598;2023-12-29T10:28:20;6.55;;;2.53;;
57047;SDS011;42934;54.294;18.598;2023-12-29T10:30:50;3.35;;;2.50;;
57047;SDS011;42934;54.294;18.598;2023-12-29T10:33:21;5.75;;;2.78;;
57047;SDS011;42934;54.294;18.598;2023-12-29T10:36:01;6.60;;;2.28;;
57047;SDS011;42934;54.294;18.598;2023-12-29T10:38:33;7.10;;;2.42;;
57047;SDS011;42934;54.294;18.598;2023-12-29T10:41:10;7.13;;;2.70;;
57047;SDS011;42934;54.294;18.598;2023-12-29T10:43:40;3.75;;;2.17;;
57047;SDS011;42934;54.294;18.598;2023-12-29T10:46:11;6.70;;;2.35;;
57047;SDS011;42934;54.294;18.598;2023-12-29T10:48:42;3.23;;;2.30;;
57047;SDS011;42934;54.294;18.598;2023-12-29T10:51:11;3.60;;;2.28;;
57047;SDS011;42934;54.294;18.598;2023-12-29T10:53:40;3.42;;;2.03;;
57047;SDS011;42934;54.294;18.598;2023-12-29T10:56:16;4.07;;;2.22;;
57047;SDS011;42934;54.294;18.598;2023-12-29T10:58:56;3.30;;;1.90;;
57047;SDS011;42934;54.294;18.598;2023-12-29T11:01:27;3.40;;;2.40;;
57047;SDS011;42934;54.294;18.598;2023-12-29T11:03:59;3.67;;;1.98;;
57047;SDS011;42934;54.294;18.598;2023-12-29T11:06:29;3.53;;;2.17;;
57047;SDS011;42934;54.294;18.598;2023-12-29T11:09:07;4.45;;;1.88;;
57047;SDS011;42934;54.294;18.598;2023-12-29T11:11:38;2.63;;;1.80;;
57047;SDS011;42934;54.294;18.598;2023-12-29T11:14:08;3.10;;;2.07;;
57047;SDS011;42934;54.294;18.598;2023-12-29T11:16:39;4.70;;;1.83;;
57047;SDS011;42934;54.294;18.598;2023-12-29T11:19:12;6.47;;;1.90;;
57047;SDS011;42934;54.294;18.598;2023-12-29T11:21:42;3.65;;;1.60;;
57047;SDS011;42934;54.294;18.598;2023-12-29T11:24:12;4.72;;;2.42;;
57047;SDS011;42934;54.294;18.598;2023-12-29T11:26:51;3.90;;;1.38;;
57047;SDS011;42934;54.294;18.598;2023-12-29T11:29:22;3.85;;;1.48;;
57047;SDS011;42934;54.294;18.598;2023-12-29T11:31:52;7.90;;;2.20;;
57047;SDS011;42934;54.294;18.598;2023-12-29T11:34:25;5.03;;;1.85;;
57047;SDS011;42934;54.294;18.598;2023-12-29T11:37:04;5.20;;;1.50;;
57047;SDS011;42934;54.294;18.598;2023-12-29T11:39:42;4.95;;;2.10;;
57047;SDS011;42934;54.294;18.598;2023-12-29T11:42:19;4.43;;;1.55;;
57047;SDS011;42934;54.294;18.598;2023-12-29T11:44:54;7.40;;;1.85;;
57047;SDS011;42934;54.294;18.598;2023-12-29T11:47:35;3.30;;;1.60;;
57047;SDS011;42934;54.294;18.598;2023-12-29T11:50:07;3.47;;;1.83;;
57047;SDS011;42934;54.294;18.598;2023-12-29T11:52:37;3.25;;;1.63;;
57047;SDS011;42934;54.294;18.598;2023-12-29T11:55:07;3.97;;;1.67;;
57047;SDS011;42934;54.294;18.598;2023-12-29T11:57:37;4.55;;;2.00;;
57047;SDS011;42934;54.294;18.598;2023-12-29T12:00:08;3.90;;;1.70;;
57047;SDS011;42934;54.294;18.598;2023-12-29T12:05:09;5.65;;;2.10;;
57047;SDS011;42934;54.294;18.598;2023-12-29T12:07:58;4.18;;;1.77;;
57047;SDS011;42934;54.294;18.598;2023-12-29T12:10:29;8.10;;;1.80;;
57047;SDS011;42934;54.294;18.598;2023-12-29T12:13:00;6.75;;;1.80;;
57047;SDS011;42934;54.294;18.598;2023-12-29T12:15:33;4.53;;;1.42;;
57047;SDS011;42934;54.294;18.598;2023-12-29T12:18:03;7.07;;;1.73;;
57047;SDS011;42934;54.294;18.598;2023-12-29T12:20:37;6.68;;;2.35;;
57047;SDS011;42934;54.294;18.598;2023-12-29T12:23:09;7.35;;;2.90;;
57047;SDS011;42934;54.294;18.598;2023-12-29T12:25:45;8.52;;;3.70;;
57047;SDS011;42934;54.294;18.598;2023-12-29T12:28:14;12.48;;;4.00;;
57047;SDS011;42934;54.294;18.598;2023-12-29T12:30:44;6.90;;;1.60;;
57047;SDS011;42934;54.294;18.598;2023-12-29T12:33:13;5.03;;;1.90;;
57047;SDS011;42934;54.294;18.598;2023-12-29T12:35:44;8.73;;;2.60;;
57047;SDS011;42934;54.294;18.598;2023-12-29T12:38:30;7.28;;;1.90;;
57047;SDS011;42934;54.294;18.598;2023-12-29T12:41:09;4.13;;;2.00;;
57047;SDS011;42934;54.294;18.598;2023-12-29T12:43:43;3.80;;;1.35;;
57047;SDS011;42934;54.294;18.598;2023-12-29T12:46:22;3.88;;;1.30;;
57047;SDS011;42934;54.294;18.598;2023-12-29T12:48:52;3.70;;;1.40;;
57047;SDS011;42934;54.294;18.598;2023-12-29T12:51:23;5.43;;;1.30;;
57047;SDS011;42934;54.294;18.598;2023-12-29T12:53:53;3.35;;;1.40;;
57047;SDS011;42934;54.294;18.598;2023-12-29T12:56:22;3.88;;;1.30;;
57047;SDS011;42934;54.294;18.598;2023-12-29T12:58:55;4.88;;;1.20;;
57047;SDS011;42934;54.294;18.598;2023-12-29T13:03:54;3.70;;;1.10;;
57047;SDS011;42934;54.294;18.598;2023-12-29T13:06:27;2.63;;;1.00;;
57047;SDS011;42934;54.294;18.598;2023-12-29T13:08:57;2.53;;;1.40;;
57047;SDS011;42934;54.294;18.598;2023-12-29T13:11:27;3.47;;;1.00;;
57047;SDS011;42934;54.294;18.598;2023-12-29T13:13:56;2.75;;;1.27;;
57047;SDS011;42934;54.294;18.598;2023-12-29T13:16:30;2.28;;;1.20;;
57047;SDS011;42934;54.294;18.598;2023-12-29T13:19:14;3.72;;;1.33;;
57047;SDS011;42934;54.294;18.598;2023-12-29T13:21:47;2.92;;;1.30;;
57047;SDS011;42934;54.294;18.598;2023-12-29T13:24:16;2.92;;;1.30;;
57047;SDS011;42934;54.294;18.598;2023-12-29T13:26:45;3.63;;;1.60;;
57047;SDS011;42934;54.294;18.598;2023-12-29T13:29:19;2.47;;;1.38;;
57047;SDS011;42934;54.294;18.598;2023-12-29T13:31:51;3.42;;;1.55;;
57047;SDS011;42934;54.294;18.598;2023-12-29T13:34:23;4.13;;;2.47;;
57047;SDS011;42934;54.294;18.598;2023-12-29T13:37:04;3.33;;;1.60;;
57047;SDS011;42934;54.294;18.598;2023-12-29T13:39:44;3.20;;;1.95;;
57047;SDS011;42934;54.294;18.598;2023-12-29T13:42:19;3.15;;;2.03;;
57047;SDS011;42934;54.294;18.598;2023-12-29T13:44:53;1.92;;;1.40;;
57047;SDS011;42934;54.294;18.598;2023-12-29T13:49:53;4.40;;;2.03;;
57047;SDS011;42934;54.294;18.598;2023-12-29T13:52:23;5.05;;;2.30;;
57047;SDS011;42934;54.294;18.598;2023-12-29T13:54:53;3.33;;;1.48;;
57047;SDS011;42934;54.294;18.598;2023-12-29T13:57:29;4.32;;;1.67;;
57047;SDS011;42934;54.294;18.598;2023-12-29T14:00:13;4.28;;;1.80;;
57047;SDS011;42934;54.294;18.598;2023-12-29T14:02:43;4.90;;;1.83;;
57047;SDS011;42934;54.294;18.598;2023-12-29T14:05:23;4.20;;;1.67;;
57047;SDS011;42934;54.294;18.598;2023-12-29T14:07:59;4.47;;;2.22;;
57047;SDS011;42934;54.294;18.598;2023-12-29T14:13:06;3.20;;;1.77;;
57047;SDS011;42934;54.294;18.598;2023-12-29T14:15:36;6.88;;;1.80;;
57047;SDS011;42934;54.294;18.598;2023-12-29T14:18:07;8.50;;;3.00;;
57047;SDS011;42934;54.294;18.598;2023-12-29T14:20:53;4.93;;;2.10;;
57047;SDS011;42934;54.294;18.598;2023-12-29T14:23:24;5.43;;;2.20;;
57047;SDS011;42934;54.294;18.598;2023-12-29T14:25:56;6.03;;;2.15;;
57047;SDS011;42934;54.294;18.598;2023-12-29T14:28:30;4.82;;;2.10;;
57047;SDS011;42934;54.294;18.598;2023-12-29T14:31:00;5.88;;;2.92;;
57047;SDS011;42934;54.294;18.598;2023-12-29T14:33:30;4.90;;;2.22;;
57047;SDS011;42934;54.294;18.598;2023-12-29T14:35:59;3.47;;;1.97;;
57047;SDS011;42934;54.294;18.598;2023-12-29T14:38:30;5.32;;;2.40;;
57047;SDS011;42934;54.294;18.598;2023-12-29T14:40:59;9.80;;;2.35;;
57047;SDS011;42934;54.294;18.598;2023-12-29T14:46:01;6.45;;;2.65;;
57047;SDS011;42934;54.294;18.598;2023-12-29T14:48:31;4.20;;;2.13;;
57047;SDS011;42934;54.294;18.598;2023-12-29T14:51:00;9.33;;;2.23;;
57047;SDS011;42934;54.294;18.598;2023-12-29T14:53:31;7.77;;;2.50;;
57047;SDS011;42934;54.294;18.598;2023-12-29T14:56:01;5.32;;;2.55;;
57047;SDS011;42934;54.294;18.598;2023-12-29T14:58:30;6.28;;;2.53;;
57047;SDS011;42934;54.294;18.598;2023-12-29T15:01:00;6.07;;;2.53;;
57047;SDS011;42934;54.294;18.598;2023-12-29T15:03:29;7.68;;;2.53;;
57047;SDS011;42934;54.294;18.598;2023-12-29T15:05:59;6.72;;;2.25;;
57047;SDS011;42934;54.294;18.598;2023-12-29T15:08:29;5.30;;;2.35;;
57047;SDS011;42934;54.294;18.598;2023-12-29T15:11:02;4.57;;;2.67;;
57047;SDS011;42934;54.294;18.598;2023-12-29T15:16:02;6.07;;;2.67;;
57047;SDS011;42934;54.294;18.598;2023-12-29T15:18:33;5.95;;;2.70;;
57047;SDS011;42934;54.294;18.598;2023-12-29T15:21:03;8.10;;;2.85;;